createdAt,value
2022-08-20T08:47:44.835Z,16.92
2022-08-20T08:50:53.623Z,16.97
2022-08-20T08:53:42.275Z,16.99
2022-08-20T08:56:29.248Z,17.03
2022-08-20T08:59:14.776Z,17.04
2022-08-20T09:02:02.660Z,17.04
2022-08-20T09:04:48.367Z,16.99
2022-08-20T09:07:34.656Z,16.96
2022-08-20T09:10:23.085Z,16.94
2022-08-20T09:13:08.958Z,16.83
2022-08-20T09:15:55.759Z,16.81
2022-08-20T09:18:41.517Z,16.68
2022-08-20T09:21:27.048Z,16.64
2022-08-20T09:24:12.565Z,16.69
2022-08-20T09:26:57.876Z,16.69
2022-08-20T09:29:43.516Z,16.71
2022-08-20T09:32:28.724Z,16.76
2022-08-20T09:35:14.360Z,16.75
2022-08-20T09:38:00.222Z,16.77
2022-08-20T09:40:45.630Z,16.83
2022-08-20T09:43:30.878Z,16.85
2022-08-20T09:46:16.414Z,16.90
2022-08-20T09:49:02.115Z,16.98
2022-08-20T09:51:47.734Z,17.06
2022-08-20T09:54:34.302Z,17.13
2022-08-20T09:57:20.603Z,17.07
2022-08-20T10:00:11.695Z,17.12
2022-08-20T10:03:01.909Z,17.21
2022-08-20T10:05:47.496Z,17.29
2022-08-20T10:08:33.255Z,17.31
2022-08-20T10:11:18.788Z,17.32
2022-08-20T10:14:04.910Z,17.36
2022-08-20T10:16:55.281Z,17.38
2022-08-20T10:19:44.412Z,17.33
2022-08-20T10:22:30.037Z,17.28
2022-08-20T10:25:16.811Z,17.30
2022-08-20T10:28:02.254Z,17.31
2022-08-20T10:30:47.419Z,17.26
2022-08-20T10:33:33.003Z,17.30
2022-08-20T10:36:18.357Z,17.35
2022-08-20T10:39:04.326Z,17.41
2022-08-20T10:41:49.548Z,17.34
2022-08-20T10:44:35.226Z,17.28
2022-08-20T10:47:22.867Z,17.33
2022-08-20T10:50:10.396Z,17.38
2022-08-20T10:52:55.679Z,17.40
2022-08-20T10:55:41.403Z,17.31
2022-08-20T10:58:27.366Z,17.33
2022-08-20T11:01:31.462Z,17.37
2022-08-20T11:04:20.673Z,17.40
2022-08-20T11:07:55.019Z,17.44
2022-08-20T11:10:35.785Z,17.42
2022-08-20T11:13:21.211Z,17.43
2022-08-20T11:16:06.825Z,17.37
2022-08-20T11:22:53.926Z,17.37
2022-08-20T11:25:39.205Z,17.37
2022-08-20T11:28:31.105Z,17.40
2022-08-20T11:31:18.069Z,17.43
2022-08-20T11:34:03.473Z,17.49
2022-08-20T11:36:48.987Z,17.48
2022-08-20T11:43:35.205Z,17.36
2022-08-20T11:46:21.338Z,17.38
2022-08-20T11:49:08.961Z,17.33
2022-08-20T11:51:54.395Z,17.36
2022-08-20T11:54:40.720Z,17.38
2022-08-20T12:01:39.474Z,17.44
2022-08-20T12:09:24.651Z,17.55
2022-08-20T12:12:09.950Z,17.69
2022-08-20T12:14:55.761Z,17.78
2022-08-20T12:17:41.313Z,17.87
2022-08-20T12:20:26.682Z,17.99
2022-08-20T12:23:12.143Z,18.07
2022-08-20T12:25:59.234Z,18.16
2022-08-20T12:28:44.799Z,18.19
2022-08-20T12:31:30.292Z,18.28
2022-08-20T12:34:16.564Z,18.33
2022-08-20T12:37:05.679Z,18.40
2022-08-20T12:39:53.353Z,18.43
2022-08-20T12:42:38.828Z,18.33
2022-08-20T12:45:24.674Z,18.35
2022-08-20T12:48:11.531Z,18.32
2022-08-20T12:50:56.931Z,18.31
2022-08-20T12:53:42.114Z,18.38
2022-08-20T12:56:27.603Z,18.46
2022-08-20T12:59:13.255Z,18.37
2022-08-20T13:01:58.769Z,18.40
2022-08-20T13:05:04.623Z,18.44
2022-08-20T13:07:51.355Z,18.41
2022-08-20T13:10:38.197Z,18.42
2022-08-20T13:13:23.967Z,18.39
2022-08-20T13:16:09.610Z,18.28
2022-08-20T13:18:55.274Z,18.17
2022-08-20T13:21:40.688Z,18.11
2022-08-20T13:24:26.343Z,18.09
2022-08-20T13:27:16.589Z,18.04
2022-08-20T13:30:02.143Z,18.04
2022-08-20T13:32:47.815Z,17.96
2022-08-20T13:35:33.286Z,18.00
2022-08-20T13:38:19.021Z,18.05
2022-08-20T13:41:04.902Z,18.09
2022-08-20T13:43:50.636Z,18.11
2022-08-20T13:46:35.940Z,18.12
2022-08-20T13:49:21.405Z,18.12
2022-08-20T13:52:07.025Z,18.13
2022-08-20T13:54:53.928Z,18.16
2022-08-20T13:57:39.888Z,18.17
2022-08-20T14:00:31.870Z,18.18
2022-08-20T14:03:27.880Z,18.16
2022-08-20T14:06:13.240Z,18.16
2022-08-20T14:08:58.699Z,18.16
2022-08-20T14:11:44.387Z,18.17
2022-08-20T14:14:29.967Z,18.18
2022-08-20T14:17:15.777Z,18.20
2022-08-20T14:20:04.734Z,18.20
2022-08-20T14:22:50.285Z,18.20
2022-08-20T14:25:35.598Z,18.22
2022-08-20T14:28:22.494Z,18.21
2022-08-20T14:31:07.717Z,18.22
2022-08-20T14:33:53.362Z,18.22
2022-08-20T14:36:38.440Z,18.24
2022-08-20T14:39:25.439Z,18.25
2022-08-20T14:42:10.942Z,18.26
2022-08-20T14:44:57.236Z,18.25
2022-08-20T14:47:44.469Z,18.26
2022-08-20T14:50:35.251Z,18.27
2022-08-20T14:53:21.941Z,18.27
2022-08-20T14:59:54.683Z,18.26
2022-08-20T15:02:40.232Z,18.26
2022-08-20T15:05:44.435Z,18.26
2022-08-20T15:08:31.585Z,18.27
2022-08-20T15:11:17.055Z,18.26
2022-08-20T15:14:02.910Z,18.24
2022-08-20T15:17:13.473Z,18.25
2022-08-20T15:20:01.803Z,18.25
2022-08-20T15:26:37.922Z,18.23
2022-08-20T15:29:23.664Z,18.26
2022-08-20T15:36:15.727Z,18.27
2022-08-20T15:39:01.418Z,18.28
2022-08-20T15:41:46.742Z,18.30
2022-08-20T15:44:32.188Z,18.32
2022-08-20T15:47:44.319Z,18.33
2022-08-20T15:50:39.388Z,18.36
2022-08-20T15:57:13.614Z,18.31
2022-08-20T16:00:10.214Z,18.32
2022-08-20T16:02:56.301Z,18.33
2022-08-20T16:05:53.605Z,18.36
2022-08-20T16:08:58.183Z,18.39
2022-08-20T16:15:31.835Z,18.37
2022-08-20T16:18:23.106Z,18.34
2022-08-20T16:21:12.048Z,18.34
2022-08-20T16:23:57.897Z,18.35
2022-08-20T16:26:51.360Z,18.36
2022-08-20T16:29:45.623Z,18.35
2022-08-20T16:32:31.166Z,18.34
2022-08-20T16:35:16.908Z,18.33
2022-08-20T16:38:06.835Z,18.32
2022-08-20T16:40:57.038Z,18.32
2022-08-20T16:43:53.601Z,18.31
2022-08-20T16:46:49.342Z,18.31
2022-08-20T16:49:38.796Z,18.31
2022-08-20T16:52:48.391Z,18.28
2022-08-20T16:55:34.044Z,18.28
2022-08-20T16:58:19.734Z,18.27
2022-08-20T17:05:02.439Z,18.26
2022-08-20T17:07:52.946Z,18.25
2022-08-20T17:10:53.321Z,18.22
2022-08-20T17:13:40.875Z,18.20
2022-08-20T17:16:32.853Z,18.20
2022-08-20T17:19:19.922Z,18.18
2022-08-20T17:22:10.613Z,18.17
2022-08-20T17:24:56.541Z,18.17
2022-08-20T17:28:17.847Z,18.14
2022-08-20T17:31:03.542Z,18.12
2022-08-20T17:33:49.254Z,18.12
2022-08-20T17:37:11.791Z,18.10
2022-08-20T17:46:55.957Z,18.05
2022-08-20T17:49:54.942Z,18.03
2022-08-20T17:52:53.124Z,18.01
2022-08-20T17:55:39.598Z,17.97
2022-08-20T18:01:38.589Z,17.90
2022-08-20T18:04:24.743Z,17.86
2022-08-20T18:07:18.300Z,17.83
2022-08-20T18:10:04.017Z,17.79
2022-08-20T18:12:49.509Z,17.75
2022-08-20T18:22:48.017Z,17.68
2022-08-20T18:26:03.597Z,17.56
2022-08-20T18:28:56.349Z,17.52
2022-08-20T18:32:00.731Z,17.50
2022-08-20T18:34:48.454Z,17.46
2022-08-20T18:37:34.280Z,17.42
2022-08-20T18:40:29.262Z,17.32
2022-08-20T18:43:34.218Z,17.27
2022-08-20T18:50:40.198Z,17.29
2022-08-20T18:57:55.344Z,17.21
2022-08-20T19:00:41.187Z,17.21
2022-08-20T19:03:30.548Z,17.22
2022-08-20T19:06:33.663Z,17.22
2022-08-20T19:09:54.955Z,17.24
2022-08-20T19:13:01.225Z,17.24
2022-08-20T19:15:50.023Z,17.24
2022-08-20T19:18:41.378Z,17.25
2022-08-20T19:21:42.695Z,17.25
2022-08-20T19:28:44.193Z,17.27
2022-08-20T19:34:24.166Z,17.27
2022-08-20T19:37:35.381Z,17.27
2022-08-20T19:43:45.021Z,17.28
2022-08-20T19:46:31.298Z,17.27
2022-08-20T19:49:42.877Z,17.26
2022-08-20T19:52:34.962Z,17.26
2022-08-20T19:55:35.051Z,17.25
2022-08-20T19:58:26.559Z,17.26
2022-08-20T20:01:17.991Z,17.25
2022-08-20T20:04:11.134Z,17.26
2022-08-20T20:06:58.660Z,17.26
2022-08-20T20:09:45.205Z,17.24
2022-08-20T20:12:33.739Z,17.25
2022-08-20T20:15:20.280Z,17.22
2022-08-20T20:18:07.461Z,17.23
2022-08-20T20:26:40.695Z,17.22
2022-08-20T20:29:35.475Z,17.22
2022-08-20T20:32:23.519Z,17.22
2022-08-20T20:35:09.628Z,17.21
2022-08-20T20:38:00.310Z,17.20
2022-08-20T20:40:47.374Z,17.17
2022-08-20T20:43:38.192Z,17.17
2022-08-20T20:46:24.876Z,17.17
2022-08-20T20:49:34.959Z,17.15
2022-08-20T20:52:31.551Z,17.14
2022-08-20T20:55:17.854Z,17.15
2022-08-20T20:58:04.044Z,17.14
2022-08-20T21:00:49.915Z,17.13
2022-08-20T21:03:35.948Z,17.14
2022-08-20T21:06:25.441Z,17.11
2022-08-20T21:09:11.311Z,17.10
2022-08-20T21:11:57.542Z,17.08
2022-08-20T21:14:43.723Z,17.09
2022-08-20T21:17:30.092Z,17.08
2022-08-20T21:20:16.190Z,17.05
2022-08-20T21:23:02.270Z,17.06
2022-08-20T21:25:47.813Z,17.06
2022-08-20T21:28:33.886Z,17.05
2022-08-20T21:31:19.793Z,17.04
2022-08-20T21:34:05.470Z,17.00
2022-08-20T21:36:51.645Z,16.96
2022-08-20T21:39:37.625Z,16.91
2022-08-20T21:42:29.424Z,16.90
2022-08-20T21:45:18.659Z,16.86
2022-08-20T21:48:05.738Z,16.82
2022-08-20T21:50:51.902Z,16.81
2022-08-20T21:53:37.838Z,16.77
2022-08-20T21:56:23.971Z,16.77
2022-08-20T21:59:10.727Z,16.78
2022-08-20T22:01:57.033Z,16.74
2022-08-20T22:04:42.717Z,16.75
2022-08-20T22:07:28.833Z,16.77
2022-08-20T22:10:14.582Z,16.81
2022-08-20T22:16:57.872Z,16.88
2022-08-20T22:19:43.563Z,16.90
2022-08-20T22:22:29.654Z,16.92
2022-08-20T22:25:16.053Z,16.94
2022-08-20T22:28:02.303Z,16.96
2022-08-20T22:30:48.384Z,16.98
2022-08-20T22:33:35.034Z,17.00
2022-08-20T22:36:20.921Z,17.03
2022-08-20T22:39:09.897Z,17.05
2022-08-20T22:41:56.263Z,17.07
2022-08-20T22:44:42.306Z,17.08
2022-08-20T22:47:29.298Z,17.08
2022-08-20T22:50:30.615Z,17.08
2022-08-20T22:53:19.881Z,17.06
2022-08-20T22:56:08.083Z,17.03
2022-08-20T22:59:13.300Z,16.99
2022-08-20T23:02:08.277Z,16.96
2022-08-20T23:05:40.783Z,16.95
2022-08-20T23:08:27.406Z,16.93
2022-08-20T23:11:12.997Z,16.90
2022-08-20T23:13:59.170Z,16.91
2022-08-20T23:16:46.747Z,16.92
2022-08-20T23:19:33.238Z,16.93
2022-08-20T23:22:20.147Z,16.92
2022-08-20T23:25:07.367Z,16.91
2022-08-20T23:27:55.920Z,16.91
2022-08-20T23:30:49.173Z,16.91
2022-08-20T23:33:34.944Z,16.91
2022-08-20T23:36:21.411Z,16.88
2022-08-20T23:39:07.484Z,16.87
2022-08-20T23:41:54.888Z,16.88
2022-08-20T23:44:41.039Z,16.89
2022-08-20T23:47:26.893Z,16.90
2022-08-20T23:50:15.086Z,16.91
2022-08-20T23:53:01.132Z,16.90
2022-08-20T23:56:16.153Z,16.89
2022-08-20T23:59:02.623Z,16.86
